createdAt,value
2019-05-01T00:01:01.121Z,24.70
2019-05-01T00:03:50.703Z,24.80
2019-05-01T00:06:24.715Z,24.60
2019-05-01T00:08:54.802Z,25.00
2019-05-01T00:11:24.579Z,25.00
2019-05-01T00:13:54.471Z,25.10
2019-05-01T00:16:24.164Z,25.00
2019-05-01T00:18:53.907Z,25.10
2019-05-01T00:21:23.672Z,25.10
2019-05-01T00:23:53.659Z,25.10
2019-05-01T00:26:23.290Z,25.20
2019-05-01T00:28:52.937Z,25.20
2019-05-01T00:31:22.606Z,25.40
2019-05-01T00:33:52.343Z,25.40
2019-05-01T00:36:22.309Z,25.40
2019-05-01T00:38:51.950Z,25.20
2019-05-01T00:41:21.825Z,25.40
2019-05-01T00:43:51.610Z,25.70
2019-05-01T00:46:21.394Z,25.50
2019-05-01T00:48:51.058Z,25.50
2019-05-01T00:51:20.768Z,25.50
2019-05-01T00:53:50.684Z,25.70
2019-05-01T00:56:31.024Z,25.80
2019-05-01T00:59:08.218Z,25.80
2019-05-01T01:01:39.512Z,25.80
2019-05-01T01:04:10.820Z,25.90
2019-05-01T01:06:40.436Z,26.00
2019-05-01T01:09:10.408Z,26.00
2019-05-01T01:11:40.141Z,26.10
2019-05-01T01:14:09.923Z,26.10
2019-05-01T01:16:39.558Z,26.10
2019-05-01T01:19:09.332Z,26.20
2019-05-01T01:21:39.107Z,26.10
2019-05-01T01:24:08.817Z,26.20
2019-05-01T01:26:38.584Z,26.20
2019-05-01T01:29:08.361Z,26.20
2019-05-01T01:31:38.171Z,26.30
2019-05-01T01:34:07.871Z,26.30
2019-05-01T01:36:37.868Z,26.50
2019-05-01T01:39:07.878Z,26.40
2019-05-01T01:41:49.690Z,26.40
2019-05-01T01:44:39.261Z,26.50
2019-05-01T01:47:09.266Z,26.40
2019-05-01T01:49:39.013Z,26.40
2019-05-01T01:52:08.939Z,26.70
2019-05-01T01:54:38.482Z,26.70
2019-05-01T01:57:08.622Z,26.80
2019-05-01T01:59:38.463Z,26.50
2019-05-01T02:02:12.518Z,26.70
2019-05-01T02:04:49.792Z,26.80
2019-05-01T02:07:19.686Z,26.80
2019-05-01T02:09:49.427Z,26.90
2019-05-01T02:12:19.684Z,26.80
2019-05-01T02:14:49.798Z,26.90
2019-05-01T02:17:19.918Z,26.80
2019-05-01T02:19:49.682Z,26.90
2019-05-01T02:22:19.431Z,26.70
2019-05-01T02:24:49.154Z,26.90
2019-05-01T02:27:20.681Z,26.90
2019-05-01T02:29:52.520Z,27.00
2019-05-01T02:32:24.011Z,27.00
2019-05-01T02:34:55.164Z,27.10
2019-05-01T02:37:26.723Z,27.00
2019-05-01T02:39:58.867Z,27.00
2019-05-01T02:42:31.582Z,27.00
2019-05-01T02:45:03.902Z,27.00
2019-05-01T02:47:35.534Z,27.00
2019-05-01T02:50:10.836Z,27.00
2019-05-01T02:52:41.728Z,27.00
2019-05-01T02:55:15.411Z,27.10
2019-05-01T02:57:46.565Z,27.00
2019-05-01T03:00:17.869Z,27.10
2019-05-01T03:02:48.448Z,27.10
2019-05-01T03:05:18.297Z,27.10
2019-05-01T03:07:48.447Z,27.30
2019-05-01T03:10:18.960Z,27.30
2019-05-01T03:12:50.548Z,27.30
2019-05-01T03:15:23.034Z,27.40
2019-05-01T03:17:54.845Z,27.40
2019-05-01T03:20:38.218Z,27.40
2019-05-01T03:23:13.948Z,27.50
2019-05-01T03:25:43.971Z,27.50
2019-05-01T03:28:14.049Z,27.50
2019-05-01T03:30:44.100Z,27.70
2019-05-01T03:33:14.280Z,27.60
2019-05-01T03:35:44.617Z,27.60
2019-05-01T03:38:14.519Z,27.70
2019-05-01T03:40:44.745Z,27.70
2019-05-01T03:43:14.520Z,27.70
2019-05-01T03:45:44.502Z,27.60
2019-05-01T03:48:14.214Z,27.50
2019-05-01T03:50:46.858Z,27.80
2019-05-01T03:53:16.005Z,27.90
2019-05-01T03:55:46.284Z,28.00
2019-05-01T03:58:16.351Z,28.10
2019-05-01T04:00:48.081Z,28.10
2019-05-01T04:03:28.829Z,28.10
2019-05-01T04:05:58.572Z,28.20
2019-05-01T04:08:47.638Z,28.30
2019-05-01T04:11:17.697Z,28.40
2019-05-01T04:13:48.002Z,28.50
2019-05-01T04:16:18.469Z,28.50
2019-05-01T04:18:48.806Z,28.50
2019-05-01T04:21:21.009Z,28.60
2019-05-01T04:23:51.118Z,28.60
2019-05-01T04:26:23.939Z,28.70
2019-05-01T04:28:58.485Z,28.80
2019-05-01T04:31:39.430Z,28.70
2019-05-01T04:34:15.677Z,28.70
2019-05-01T04:36:47.558Z,28.80
2019-05-01T04:39:17.694Z,28.70
2019-05-01T04:41:47.821Z,28.80
2019-05-01T04:44:17.624Z,28.80
2019-05-01T04:46:47.546Z,28.80
2019-05-01T04:49:18.168Z,28.80
2019-05-01T04:51:48.454Z,28.90
2019-05-01T04:54:18.239Z,28.80
2019-05-01T04:56:48.741Z,28.80
2019-05-01T04:59:19.012Z,28.80
2019-05-01T05:01:56.679Z,28.90
2019-05-01T05:04:25.153Z,28.90
2019-05-01T05:06:56.021Z,28.90
2019-05-01T05:09:44.563Z,29.00
2019-05-01T05:12:32.254Z,29.00
2019-05-01T05:15:03.853Z,29.00
2019-05-01T05:17:34.067Z,28.90
2019-05-01T05:20:05.625Z,29.00
2019-05-01T05:22:35.424Z,29.00
2019-05-01T05:25:06.204Z,29.00
2019-05-01T05:27:36.075Z,28.90
2019-05-01T05:30:05.933Z,28.90
2019-05-01T05:32:37.967Z,29.00
2019-05-01T05:35:09.422Z,28.90
2019-05-01T05:37:57.675Z,28.90
2019-05-01T05:40:30.950Z,28.80
2019-05-01T05:43:00.884Z,28.80
2019-05-01T05:45:30.985Z,28.80
2019-05-01T05:48:20.124Z,28.80
2019-05-01T05:51:12.618Z,28.90
2019-05-01T05:53:49.915Z,28.90
2019-05-01T05:56:21.893Z,28.80
2019-05-01T05:58:55.937Z,28.70
2019-05-01T06:01:35.046Z,28.90
2019-05-01T06:04:12.110Z,28.80
2019-05-01T06:06:46.456Z,28.80
2019-05-01T06:09:18.815Z,28.90
2019-05-01T06:11:52.985Z,28.90
2019-05-01T06:14:42.716Z,28.70
2019-05-01T06:17:28.638Z,28.80
2019-05-01T06:20:20.909Z,28.70
2019-05-01T06:23:06.822Z,28.70
2019-05-01T06:25:42.428Z,28.70
2019-05-01T06:28:12.681Z,28.70
2019-05-01T06:30:47.053Z,28.70
2019-05-01T06:33:13.982Z,28.60
2019-05-01T06:35:43.776Z,28.60
2019-05-01T06:38:16.512Z,28.70
2019-05-01T06:40:52.913Z,28.70
2019-05-01T06:43:27.554Z,28.60
2019-05-01T06:46:05.220Z,28.60
2019-05-01T06:48:36.647Z,28.70
2019-05-01T06:51:24.938Z,28.60
2019-05-01T06:53:54.836Z,28.60
2019-05-01T06:56:24.616Z,28.60
2019-05-01T06:58:55.349Z,28.60
2019-05-01T07:01:26.127Z,28.70
2019-05-01T07:04:03.460Z,28.60
2019-05-01T07:06:31.007Z,28.60
2019-05-01T07:08:59.255Z,28.60
2019-05-01T07:11:29.316Z,28.70
2019-05-01T07:13:59.103Z,28.80
2019-05-01T07:16:33.231Z,28.80
2019-05-01T07:19:05.742Z,28.90
2019-05-01T07:21:38.566Z,29.00
2019-05-01T07:24:10.174Z,29.00
2019-05-01T07:26:43.962Z,29.10
2019-05-01T07:29:24.882Z,29.10
2019-05-01T07:31:54.656Z,29.00
2019-05-01T07:34:26.200Z,29.00
2019-05-01T07:36:56.140Z,29.00
2019-05-01T07:39:25.965Z,28.90
2019-05-01T07:41:57.378Z,29.10
2019-05-01T07:44:29.973Z,29.20
2019-05-01T07:47:10.811Z,29.10
2019-05-01T07:49:58.771Z,29.10
2019-05-01T07:52:28.943Z,29.00
2019-05-01T07:54:59.327Z,29.00
2019-05-01T07:57:48.359Z,29.10
2019-05-01T08:03:24.582Z,29.00
2019-05-01T08:05:54.389Z,28.90
2019-05-01T08:08:24.159Z,28.60
2019-05-01T08:10:53.983Z,28.80
2019-05-01T08:13:23.706Z,28.60
2019-05-01T08:16:07.145Z,28.30
2019-05-01T08:18:44.840Z,28.00
2019-05-01T08:24:26.671Z,27.50
2019-05-01T08:26:56.480Z,27.30
2019-05-01T08:29:46.122Z,27.00
2019-05-01T08:32:38.801Z,27.00
2019-05-01T08:35:08.322Z,26.60
2019-05-01T08:37:38.177Z,26.10
2019-05-01T08:40:08.352Z,25.60
2019-05-01T08:42:42.688Z,24.70
2019-05-01T08:45:11.621Z,24.10
2019-05-01T08:47:43.009Z,23.90
2019-05-01T08:50:32.066Z,24.00
2019-05-01T08:53:01.792Z,24.00
2019-05-01T08:55:32.841Z,24.00
2019-05-01T08:58:02.628Z,24.10
2019-05-01T09:00:35.964Z,24.10
2019-05-01T09:03:08.686Z,24.20
2019-05-01T09:05:35.199Z,24.20
2019-05-01T09:08:05.399Z,24.10
2019-05-01T09:10:35.004Z,24.10
2019-05-01T09:13:04.878Z,24.00
2019-05-01T09:15:35.476Z,23.90
2019-05-01T09:18:05.559Z,23.80
2019-05-01T09:20:36.773Z,23.70
2019-05-01T09:23:09.515Z,23.60
2019-05-01T09:25:57.385Z,23.40
2019-05-01T09:28:28.839Z,23.40
2019-05-01T09:31:02.160Z,23.40
2019-05-01T09:33:32.116Z,23.40
2019-05-01T09:36:02.297Z,23.30
2019-05-01T09:38:32.091Z,23.30
2019-05-01T09:41:01.872Z,23.30
2019-05-01T09:43:35.498Z,23.30
2019-05-01T09:46:05.623Z,23.40
2019-05-01T09:48:35.534Z,23.40
2019-05-01T09:51:07.248Z,23.30
2019-05-01T09:53:41.130Z,23.40
2019-05-01T09:56:21.073Z,23.20
2019-05-01T09:58:50.724Z,23.20
2019-05-01T10:01:24.587Z,23.10
2019-05-01T10:03:54.467Z,23.00
2019-05-01T10:06:23.086Z,22.90
2019-05-01T10:08:53.200Z,22.70
2019-05-01T10:11:22.960Z,22.60
2019-05-01T10:13:53.684Z,22.50
2019-05-01T10:16:24.354Z,22.40
2019-05-01T10:18:54.454Z,22.30
2019-05-01T10:21:27.272Z,22.20
2019-05-01T10:23:55.623Z,22.00
2019-05-01T10:26:26.907Z,21.80
2019-05-01T10:29:06.924Z,21.70
2019-05-01T10:31:56.318Z,21.50
2019-05-01T10:34:42.989Z,21.40
2019-05-01T10:37:14.212Z,21.30
2019-05-01T10:40:04.416Z,21.30
2019-05-01T10:42:37.810Z,21.30
2019-05-01T10:45:07.695Z,21.20
2019-05-01T10:47:37.461Z,21.20
2019-05-01T10:50:07.594Z,21.10
2019-05-01T10:52:37.606Z,21.00
2019-05-01T10:55:08.358Z,21.00
2019-05-01T10:57:40.641Z,20.90
2019-05-01T11:00:10.762Z,20.90
2019-05-01T11:02:40.694Z,20.70
2019-05-01T11:05:11.149Z,20.70
2019-05-01T11:07:40.984Z,20.60
2019-05-01T11:10:11.456Z,20.50
2019-05-01T11:12:41.347Z,20.60
2019-05-01T11:15:11.582Z,20.60
2019-05-01T11:18:00.646Z,20.60
2019-05-01T11:20:30.440Z,20.60
2019-05-01T11:23:00.199Z,20.60
2019-05-01T11:25:30.067Z,20.60
2019-05-01T11:27:59.790Z,20.50
2019-05-01T11:30:29.681Z,20.60
2019-05-01T11:33:03.647Z,20.60
2019-05-01T11:35:51.521Z,20.60
2019-05-01T11:38:22.851Z,20.70
2019-05-01T11:41:00.748Z,20.70
2019-05-01T11:43:30.651Z,20.70
2019-05-01T11:46:00.429Z,20.60
2019-05-01T11:48:35.197Z,20.60
2019-05-01T11:51:06.515Z,20.60
2019-05-01T11:53:36.497Z,20.50
2019-05-01T11:56:06.967Z,20.50
2019-05-01T11:58:36.682Z,20.40
2019-05-01T12:01:07.195Z,20.30
2019-05-01T12:03:36.985Z,20.30
2019-05-01T12:06:06.726Z,20.30
2019-05-01T12:08:36.905Z,20.30
2019-05-01T12:11:07.900Z,20.30
2019-05-01T12:13:57.001Z,20.40
2019-05-01T12:16:44.679Z,20.40
2019-05-01T12:19:14.470Z,20.50
2019-05-01T12:21:44.148Z,20.50
2019-05-01T12:24:14.072Z,20.60
2019-05-01T12:26:44.034Z,20.60
2019-05-01T12:29:13.780Z,20.50
2019-05-01T12:31:43.466Z,20.50
2019-05-01T12:34:32.535Z,20.50
2019-05-01T12:37:19.024Z,20.60
2019-05-01T12:39:48.762Z,20.70
2019-05-01T12:42:26.215Z,20.70
2019-05-01T12:44:55.843Z,20.70
2019-05-01T12:47:27.301Z,20.70
2019-05-01T12:49:57.482Z,20.70
2019-05-01T12:52:40.875Z,20.70
2019-05-01T12:55:12.396Z,20.80
2019-05-01T12:57:42.304Z,20.70
2019-05-01T13:00:13.950Z,20.60
2019-05-01T13:02:45.071Z,20.60
2019-05-01T13:05:14.853Z,20.70
2019-05-01T13:07:45.382Z,20.70
2019-05-01T13:10:22.691Z,20.70
2019-05-01T13:12:50.346Z,20.80
2019-05-01T13:15:20.288Z,20.80
2019-05-01T13:17:50.034Z,20.80
2019-05-01T13:20:19.768Z,20.90
2019-05-01T13:22:49.421Z,21.00
2019-05-01T13:25:19.300Z,20.90
2019-05-01T13:27:59.375Z,20.90
2019-05-01T13:30:48.959Z,20.90
2019-05-01T13:33:18.735Z,20.90
2019-05-01T13:35:48.629Z,20.90
2019-05-01T13:38:18.395Z,20.90
2019-05-01T13:40:48.175Z,20.80
2019-05-01T13:43:18.367Z,20.80
2019-05-01T13:45:48.339Z,20.80
2019-05-01T13:48:18.100Z,20.80
2019-05-01T13:50:47.995Z,20.80
2019-05-01T13:53:17.697Z,20.80
2019-05-01T13:55:47.556Z,20.80
2019-05-01T13:58:17.475Z,20.80
2019-05-01T14:00:47.425Z,20.90
2019-05-01T14:03:17.182Z,20.90
2019-05-01T14:05:46.959Z,20.90
2019-05-01T14:08:16.661Z,20.90
2019-05-01T14:10:46.393Z,21.00
2019-05-01T14:13:16.082Z,21.10
2019-05-01T14:15:45.777Z,21.10
2019-05-01T14:18:15.581Z,21.10
2019-05-01T14:21:05.453Z,21.20
2019-05-01T14:23:45.932Z,21.20
2019-05-01T14:26:16.490Z,21.30
2019-05-01T14:28:46.211Z,21.30
2019-05-01T14:31:16.092Z,21.40
2019-05-01T14:33:45.977Z,21.40
2019-05-01T14:36:15.673Z,21.50
2019-05-01T14:38:45.441Z,21.50
2019-05-01T14:41:15.260Z,21.60
2019-05-01T14:43:45.097Z,21.60
2019-05-01T14:46:14.853Z,21.70
2019-05-01T14:48:44.391Z,21.70
2019-05-01T14:51:16.140Z,21.80
2019-05-01T14:53:45.505Z,21.80
2019-05-01T14:56:15.519Z,21.90
2019-05-01T14:58:45.148Z,21.90
2019-05-01T15:01:14.949Z,22.00
2019-05-01T15:03:44.762Z,22.10
2019-05-01T15:06:14.399Z,22.10
2019-05-01T15:08:44.117Z,22.20
2019-05-01T15:11:14.214Z,22.20
2019-05-01T15:13:45.539Z,22.30
2019-05-01T15:16:16.915Z,22.30
2019-05-01T15:18:53.992Z,22.40
2019-05-01T15:21:23.645Z,22.60
2019-05-01T15:23:54.025Z,22.70
2019-05-01T15:26:24.008Z,22.70
2019-05-01T15:28:53.820Z,22.80
2019-05-01T15:33:55.347Z,23.00
2019-05-01T15:36:25.044Z,23.00
2019-05-01T15:38:54.840Z,23.00
2019-05-01T15:41:42.491Z,23.10
2019-05-01T15:44:16.442Z,23.20
2019-05-01T15:46:46.266Z,23.30
2019-05-01T15:49:16.123Z,23.30
2019-05-01T15:51:45.829Z,23.40
2019-05-01T15:54:15.456Z,23.40
2019-05-01T15:56:45.241Z,23.40
2019-05-01T15:59:15.072Z,23.60
2019-05-01T16:01:44.905Z,23.40
2019-05-01T16:04:14.695Z,23.60
2019-05-01T16:06:44.484Z,23.80
2019-05-01T16:09:14.156Z,23.90
2019-05-01T16:12:02.323Z,24.00
2019-05-01T16:14:32.094Z,24.10
2019-05-01T16:17:01.814Z,24.10
2019-05-01T16:19:31.697Z,24.10
2019-05-01T16:22:01.561Z,24.20
2019-05-01T16:24:31.158Z,24.20
2019-05-01T16:27:00.945Z,24.30
2019-05-01T16:29:30.742Z,24.30
2019-05-01T16:32:00.590Z,24.30
2019-05-01T16:34:30.369Z,24.30
2019-05-01T16:37:00.229Z,24.10
2019-05-01T16:39:46.911Z,24.20
2019-05-01T16:42:16.695Z,24.30
2019-05-01T16:44:46.428Z,24.40
2019-05-01T16:47:17.868Z,24.20
2019-05-01T16:49:47.465Z,24.30
2019-05-01T16:52:18.883Z,24.30
2019-05-01T16:54:58.756Z,24.30
2019-05-01T16:57:20.114Z,24.40
2019-05-01T16:59:49.792Z,24.40
2019-05-01T17:02:27.219Z,24.40
2019-05-01T17:05:06.513Z,24.50
2019-05-01T17:07:38.200Z,24.60
2019-05-01T17:10:16.056Z,24.60
2019-05-01T17:12:52.891Z,24.60
2019-05-01T17:15:30.345Z,24.60
2019-05-01T17:18:00.193Z,24.60
2019-05-01T17:20:31.509Z,24.60
2019-05-01T17:23:01.155Z,24.60
2019-05-01T17:25:30.946Z,24.40
2019-05-01T17:28:02.757Z,24.40
2019-05-01T17:30:40.402Z,24.40
2019-05-01T17:33:10.292Z,24.40
2019-05-01T17:35:41.846Z,24.40
2019-05-01T17:38:30.720Z,24.40
2019-05-01T17:41:00.415Z,24.40
2019-05-01T17:43:30.150Z,24.40
2019-05-01T17:45:59.910Z,24.40
2019-05-01T17:48:33.650Z,24.40
2019-05-01T17:51:01.982Z,24.50
2019-05-01T17:53:31.877Z,25.10
2019-05-01T17:56:02.113Z,25.00
2019-05-01T17:58:31.781Z,25.20
2019-05-01T18:01:04.555Z,25.10
2019-05-01T18:03:52.577Z,24.90
2019-05-01T18:06:27.382Z,24.90
2019-05-01T18:09:03.169Z,24.80
2019-05-01T18:11:28.406Z,25.00
2019-05-01T18:13:58.098Z,25.00
2019-05-01T18:16:29.444Z,25.10
2019-05-01T18:18:59.273Z,25.10
2019-05-01T18:21:28.991Z,25.20
2019-05-01T18:24:06.868Z,25.30
2019-05-01T18:26:46.421Z,26.80
2019-05-01T18:29:20.436Z,28.50
2019-05-01T18:31:50.725Z,29.10
2019-05-01T18:34:21.007Z,29.50
2019-05-01T18:37:11.648Z,29.50
2019-05-01T18:39:43.199Z,29.60
2019-05-01T18:42:14.717Z,30.30
2019-05-01T18:44:47.424Z,30.60
2019-05-01T18:47:16.343Z,30.70
2019-05-01T18:49:46.583Z,31.00
2019-05-01T18:52:16.549Z,30.70
2019-05-01T18:54:46.807Z,30.70
2019-05-01T18:57:18.317Z,30.60
2019-05-01T18:59:50.115Z,30.40
2019-05-01T19:02:20.461Z,30.70
2019-05-01T19:04:51.514Z,30.80
2019-05-01T19:07:21.180Z,30.80
2019-05-01T19:09:51.218Z,30.80
2019-05-01T19:12:21.102Z,30.70
2019-05-01T19:14:52.387Z,30.60
2019-05-01T19:17:22.385Z,30.60
2019-05-01T19:19:52.181Z,30.70
2019-05-01T19:22:21.977Z,30.70
2019-05-01T19:24:51.890Z,30.70
2019-05-01T19:27:24.251Z,30.80
2019-05-01T19:29:53.528Z,31.00
2019-05-01T19:32:23.855Z,31.00
2019-05-01T19:34:53.630Z,30.80
2019-05-01T19:37:23.958Z,31.00
2019-05-01T19:39:55.135Z,31.10
2019-05-01T19:42:25.065Z,31.10
2019-05-01T19:44:57.936Z,31.30
2019-05-01T19:47:27.972Z,31.40
2019-05-01T19:50:06.636Z,31.40
2019-05-01T19:52:37.492Z,31.30
2019-05-01T19:55:06.364Z,31.70
2019-05-01T19:57:36.787Z,33.10
2019-05-01T20:00:07.784Z,34.80
2019-05-01T20:02:39.217Z,36.80
2019-05-01T20:05:11.093Z,37.80
2019-05-01T20:07:42.811Z,38.40
2019-05-01T20:10:13.254Z,39.30
2019-05-01T20:12:43.181Z,39.70
2019-05-01T20:15:12.961Z,40.60
2019-05-01T20:17:42.785Z,41.50
2019-05-01T20:20:12.490Z,42.40
2019-05-01T20:22:42.345Z,41.90
2019-05-01T20:25:14.599Z,41.60
2019-05-01T20:27:48.374Z,41.90
2019-05-01T20:30:16.858Z,41.30
2019-05-01T20:32:46.637Z,40.00
2019-05-01T20:35:16.514Z,40.30
2019-05-01T20:37:46.247Z,40.60
2019-05-01T20:40:16.107Z,40.60
2019-05-01T20:42:45.779Z,41.60
2019-05-01T20:45:18.318Z,41.50
2019-05-01T20:47:48.182Z,40.90
2019-05-01T20:50:18.434Z,40.70
2019-05-01T20:52:48.120Z,40.90
2019-05-01T20:55:17.773Z,41.30
2019-05-01T20:57:48.850Z,41.90
2019-05-01T21:00:21.840Z,41.60
2019-05-01T21:02:51.462Z,42.10
2019-05-01T21:05:22.880Z,43.10
2019-05-01T21:08:03.425Z,42.70
2019-05-01T21:10:36.101Z,42.40
2019-05-01T21:13:05.812Z,43.10
2019-05-01T21:15:35.618Z,43.00
2019-05-01T21:18:05.381Z,43.70
2019-05-01T21:20:35.212Z,44.40
2019-05-01T21:23:10.583Z,45.00
2019-05-01T21:25:36.316Z,43.90
2019-05-01T21:28:06.065Z,45.00
2019-05-01T21:30:38.803Z,44.90
2019-05-01T21:33:11.301Z,44.60
2019-05-01T21:35:39.310Z,43.90
2019-05-01T21:38:08.910Z,45.20
2019-05-01T21:40:41.016Z,44.60
2019-05-01T21:43:10.277Z,45.20
2019-05-01T21:45:40.294Z,44.40
2019-05-01T21:48:10.848Z,45.20
2019-05-01T21:50:40.957Z,45.50
2019-05-01T21:53:12.694Z,46.80
2019-05-01T21:55:42.009Z,45.20
2019-05-01T21:58:11.703Z,46.50
2019-05-01T22:00:42.003Z,44.10
2019-05-01T22:03:12.145Z,42.10
2019-05-01T22:05:42.239Z,39.90
2019-05-01T22:08:12.343Z,38.40
2019-05-01T22:10:51.661Z,37.20
2019-05-01T22:13:15.219Z,36.30
2019-05-01T22:15:49.315Z,35.10
2019-05-01T22:18:21.033Z,34.10
2019-05-01T22:20:58.733Z,33.50
2019-05-01T22:23:30.389Z,32.80
2019-05-01T22:26:01.234Z,32.20
2019-05-01T22:28:50.268Z,31.90
2019-05-01T22:31:23.433Z,31.60
2019-05-01T22:33:54.910Z,31.30
2019-05-01T22:36:24.996Z,31.00
2019-05-01T22:38:55.118Z,30.80
2019-05-01T22:41:25.168Z,30.80
2019-05-01T22:43:55.063Z,30.70
2019-05-01T22:46:26.721Z,30.60
2019-05-01T22:48:56.828Z,30.40
2019-05-01T22:51:27.027Z,30.40
2019-05-01T22:53:57.041Z,30.30
2019-05-01T22:56:27.052Z,30.30
2019-05-01T22:58:58.124Z,30.30
2019-05-01T23:01:28.193Z,30.30
2019-05-01T23:03:59.787Z,30.30
2019-05-01T23:06:29.929Z,30.30
2019-05-01T23:08:59.517Z,30.30
2019-05-01T23:11:30.821Z,30.60
2019-05-01T23:14:00.471Z,30.60
2019-05-01T23:16:31.804Z,30.60
2019-05-01T23:19:01.584Z,30.70
2019-05-01T23:21:31.619Z,30.70
2019-05-01T23:24:01.892Z,30.70
2019-05-01T23:26:32.878Z,30.80
2019-05-01T23:29:02.587Z,30.70
2019-05-01T23:31:32.301Z,30.80
2019-05-01T23:34:01.965Z,30.80
2019-05-01T23:36:31.662Z,30.70
2019-05-01T23:39:01.318Z,30.80
2019-05-01T23:41:45.403Z,30.80
2019-05-01T23:44:03.419Z,31.00
2019-05-01T23:46:33.687Z,31.10
2019-05-01T23:49:03.647Z,31.00
2019-05-01T23:51:33.392Z,31.10
2019-05-01T23:54:03.089Z,31.10
2019-05-01T23:56:34.989Z,31.30
2019-05-01T23:59:04.486Z,31.40
